sensor_id;sensor_type;location;lat;lon;timestamp;pressure;altitude;pressure_sealevel;temperature;humidity
55460;BME280;41326;45.302;-122.946;2024-03-07T00:01:10;101248.85;;;18.27;49.29
55460;BME280;41326;45.302;-122.946;2024-03-07T00:03:40;101253.16;;;18.29;49.10
55460;BME280;41326;45.302;-122.946;2024-03-07T00:06:10;101256.58;;;18.28;49.05
55460;BME280;41326;45.302;-122.946;2024-03-07T00:08:40;101255.33;;;18.21;49.19
55460;BME280;41326;45.302;-122.946;2024-03-07T00:11:10;101253.93;;;18.15;49.42
55460;BME280;41326;45.302;-122.946;2024-03-07T00:13:41;101260.11;;;18.10;49.59
55460;BME280;41326;45.302;-122.946;2024-03-07T00:16:10;101260.87;;;18.07;49.71
55460;BME280;41326;45.302;-122.946;2024-03-07T00:18:40;101262.92;;;18.00;49.91
55460;BME280;41326;45.302;-122.946;2024-03-07T00:21:10;101262.17;;;17.95;49.88
55460;BME280;41326;45.302;-122.946;2024-03-07T00:23:41;101261.10;;;17.94;49.59
55460;BME280;41326;45.302;-122.946;2024-03-07T00:26:11;101262.61;;;17.89;49.41
55460;BME280;41326;45.302;-122.946;2024-03-07T00:28:41;101264.26;;;17.84;49.56
55460;BME280;41326;45.302;-122.946;2024-03-07T00:31:11;101263.80;;;17.87;49.77
55460;BME280;41326;45.302;-122.946;2024-03-07T00:33:41;101259.76;;;17.86;49.91
55460;BME280;41326;45.302;-122.946;2024-03-07T00:36:11;101257.68;;;17.86;50.00
55460;BME280;41326;45.302;-122.946;2024-03-07T00:38:41;101256.89;;;17.89;49.92
55460;BME280;41326;45.302;-122.946;2024-03-07T00:41:11;101254.29;;;18.03;49.81
55460;BME280;41326;45.302;-122.946;2024-03-07T00:43:41;101256.91;;;18.21;49.55
55460;BME280;41326;45.302;-122.946;2024-03-07T00:46:11;101254.74;;;18.40;49.12
55460;BME280;41326;45.302;-122.946;2024-03-07T00:48:41;101254.61;;;18.62;48.76
55460;BME280;41326;45.302;-122.946;2024-03-07T00:51:12;101252.39;;;18.79;48.35
55460;BME280;41326;45.302;-122.946;2024-03-07T00:53:42;101254.09;;;18.88;48.27
55460;BME280;41326;45.302;-122.946;2024-03-07T00:56:12;101255.27;;;18.87;47.80
55460;BME280;41326;45.302;-122.946;2024-03-07T00:58:42;101255.67;;;18.86;46.68
55460;BME280;41326;45.302;-122.946;2024-03-07T01:01:12;101258.50;;;18.87;46.01
55460;BME280;41326;45.302;-122.946;2024-03-07T01:03:42;101259.64;;;18.93;45.57
55460;BME280;41326;45.302;-122.946;2024-03-07T01:06:12;101263.40;;;19.04;44.68
55460;BME280;41326;45.302;-122.946;2024-03-07T01:08:42;101269.19;;;19.14;44.23
55460;BME280;41326;45.302;-122.946;2024-03-07T01:11:13;101271.09;;;19.20;43.64
55460;BME280;41326;45.302;-122.946;2024-03-07T01:13:43;101272.85;;;19.22;43.20
55460;BME280;41326;45.302;-122.946;2024-03-07T01:16:13;101273.81;;;19.30;42.89
55460;BME280;41326;45.302;-122.946;2024-03-07T01:18:42;101273.56;;;19.38;42.66
55460;BME280;41326;45.302;-122.946;2024-03-07T01:21:13;101274.14;;;19.42;42.22
55460;BME280;41326;45.302;-122.946;2024-03-07T01:23:42;101273.13;;;19.46;42.00
55460;BME280;41326;45.302;-122.946;2024-03-07T01:26:13;101277.00;;;19.56;42.20
55460;BME280;41326;45.302;-122.946;2024-03-07T01:28:43;101276.48;;;19.60;42.00
55460;BME280;41326;45.302;-122.946;2024-03-07T01:31:13;101276.54;;;19.53;41.38
55460;BME280;41326;45.302;-122.946;2024-03-07T01:33:43;101276.05;;;19.46;41.33
55460;BME280;41326;45.302;-122.946;2024-03-07T01:36:13;101278.57;;;19.40;41.15
55460;BME280;41326;45.302;-122.946;2024-03-07T01:38:43;101278.05;;;19.37;41.23
55460;BME280;41326;45.302;-122.946;2024-03-07T01:41:13;101281.20;;;19.35;41.57
55460;BME280;41326;45.302;-122.946;2024-03-07T01:43:43;101281.21;;;19.41;41.67
55460;BME280;41326;45.302;-122.946;2024-03-07T01:46:14;101280.85;;;19.50;41.59
55460;BME280;41326;45.302;-122.946;2024-03-07T01:48:43;101281.40;;;19.59;41.09
55460;BME280;41326;45.302;-122.946;2024-03-07T01:51:14;101285.66;;;19.68;40.49
55460;BME280;41326;45.302;-122.946;2024-03-07T01:53:44;101283.61;;;19.77;40.32
55460;BME280;41326;45.302;-122.946;2024-03-07T01:56:14;101286.18;;;19.85;40.33
55460;BME280;41326;45.302;-122.946;2024-03-07T01:58:43;101287.24;;;19.83;40.33
55460;BME280;41326;45.302;-122.946;2024-03-07T02:01:14;101289.55;;;19.78;40.47
55460;BME280;41326;45.302;-122.946;2024-03-07T02:03:44;101293.04;;;19.70;40.25
55460;BME280;41326;45.302;-122.946;2024-03-07T02:06:14;101293.38;;;19.65;40.67
55460;BME280;41326;45.302;-122.946;2024-03-07T02:08:44;101295.36;;;19.52;40.68
55460;BME280;41326;45.302;-122.946;2024-03-07T02:11:14;101300.68;;;19.43;41.31
55460;BME280;41326;45.302;-122.946;2024-03-07T02:13:44;101303.47;;;19.34;43.06
55460;BME280;41326;45.302;-122.946;2024-03-07T02:16:14;101307.99;;;19.29;45.22
55460;BME280;41326;45.302;-122.946;2024-03-07T02:18:44;101311.89;;;19.38;46.20
55460;BME280;41326;45.302;-122.946;2024-03-07T02:21:14;101314.21;;;19.54;46.62
55460;BME280;41326;45.302;-122.946;2024-03-07T02:23:44;101315.36;;;19.70;47.09
55460;BME280;41326;45.302;-122.946;2024-03-07T02:26:14;101317.55;;;19.79;47.24
55460;BME280;41326;45.302;-122.946;2024-03-07T02:28:44;101318.32;;;19.83;47.26
55460;BME280;41326;45.302;-122.946;2024-03-07T02:31:14;101321.18;;;19.82;47.23
55460;BME280;41326;45.302;-122.946;2024-03-07T02:33:44;101320.48;;;19.79;47.46
55460;BME280;41326;45.302;-122.946;2024-03-07T02:36:14;101323.66;;;19.74;47.77
55460;BME280;41326;45.302;-122.946;2024-03-07T02:38:45;101323.12;;;19.70;48.09
55460;BME280;41326;45.302;-122.946;2024-03-07T02:41:15;101323.76;;;19.67;48.26
55460;BME280;41326;45.302;-122.946;2024-03-07T02:43:45;101323.84;;;19.63;48.77
55460;BME280;41326;45.302;-122.946;2024-03-07T02:46:15;101323.60;;;19.59;48.65
55460;BME280;41326;45.302;-122.946;2024-03-07T02:48:45;101326.32;;;19.53;48.41
55460;BME280;41326;45.302;-122.946;2024-03-07T02:51:15;101323.40;;;19.48;48.60
55460;BME280;41326;45.302;-122.946;2024-03-07T02:53:45;101325.87;;;19.46;48.76
55460;BME280;41326;45.302;-122.946;2024-03-07T02:56:15;101323.50;;;19.43;48.85
55460;BME280;41326;45.302;-122.946;2024-03-07T02:58:45;101320.58;;;19.35;49.16
55460;BME280;41326;45.302;-122.946;2024-03-07T03:01:15;101321.07;;;19.33;49.22
55460;BME280;41326;45.302;-122.946;2024-03-07T03:03:45;101321.37;;;19.30;49.24
55460;BME280;41326;45.302;-122.946;2024-03-07T03:06:15;101321.71;;;19.28;49.30
55460;BME280;41326;45.302;-122.946;2024-03-07T03:08:45;101320.33;;;19.25;49.40
55460;BME280;41326;45.302;-122.946;2024-03-07T03:11:16;101321.12;;;19.21;49.58
55460;BME280;41326;45.302;-122.946;2024-03-07T03:13:46;101320.26;;;19.18;49.71
55460;BME280;41326;45.302;-122.946;2024-03-07T03:16:16;101319.04;;;19.17;49.78
55460;BME280;41326;45.302;-122.946;2024-03-07T03:18:46;101320.87;;;19.14;49.91
55460;BME280;41326;45.302;-122.946;2024-03-07T03:21:16;101320.19;;;19.12;49.98
55460;BME280;41326;45.302;-122.946;2024-03-07T03:23:46;101321.77;;;19.17;49.67
55460;BME280;41326;45.302;-122.946;2024-03-07T03:26:16;101320.19;;;19.26;49.59
55460;BME280;41326;45.302;-122.946;2024-03-07T03:28:46;101324.81;;;19.43;49.21
55460;BME280;41326;45.302;-122.946;2024-03-07T03:31:16;101324.29;;;19.52;48.99
55460;BME280;41326;45.302;-122.946;2024-03-07T03:33:46;101328.88;;;19.53;49.01
55460;BME280;41326;45.302;-122.946;2024-03-07T03:36:16;101329.58;;;19.51;49.13
55460;BME280;41326;45.302;-122.946;2024-03-07T03:38:46;101329.55;;;19.49;49.22
55460;BME280;41326;45.302;-122.946;2024-03-07T03:41:16;101328.92;;;19.42;49.41
55460;BME280;41326;45.302;-122.946;2024-03-07T03:43:46;101329.94;;;19.39;49.45
55460;BME280;41326;45.302;-122.946;2024-03-07T03:46:17;101330.37;;;19.35;49.46
55460;BME280;41326;45.302;-122.946;2024-03-07T03:48:46;101331.62;;;19.34;49.52
55460;BME280;41326;45.302;-122.946;2024-03-07T03:51:17;101334.10;;;19.30;49.72
55460;BME280;41326;45.302;-122.946;2024-03-07T03:53:47;101333.77;;;19.30;49.80
55460;BME280;41326;45.302;-122.946;2024-03-07T03:56:17;101333.11;;;19.27;49.91
55460;BME280;41326;45.302;-122.946;2024-03-07T03:58:47;101335.11;;;19.22;50.05
55460;BME280;41326;45.302;-122.946;2024-03-07T04:01:17;101334.56;;;19.14;50.35
55460;BME280;41326;45.302;-122.946;2024-03-07T04:03:47;101338.64;;;19.11;50.43
55460;BME280;41326;45.302;-122.946;2024-03-07T04:06:17;101341.34;;;19.10;50.35
55460;BME280;41326;45.302;-122.946;2024-03-07T04:08:47;101337.58;;;19.09;50.37
55460;BME280;41326;45.302;-122.946;2024-03-07T04:11:17;101339.88;;;19.05;50.57
55460;BME280;41326;45.302;-122.946;2024-03-07T04:13:48;101337.16;;;19.08;50.39
55460;BME280;41326;45.302;-122.946;2024-03-07T04:16:17;101339.18;;;19.12;50.23
55460;BME280;41326;45.302;-122.946;2024-03-07T04:18:47;101343.11;;;19.26;50.04
55460;BME280;41326;45.302;-122.946;2024-03-07T04:21:24;101343.13;;;19.42;49.68
55460;BME280;41326;45.302;-122.946;2024-03-07T04:23:54;101345.43;;;19.49;49.61
55460;BME280;41326;45.302;-122.946;2024-03-07T04:26:24;101349.74;;;19.54;49.49
55460;BME280;41326;45.302;-122.946;2024-03-07T04:28:54;101354.90;;;19.52;49.60
55460;BME280;41326;45.302;-122.946;2024-03-07T04:31:25;101353.61;;;19.49;49.80
55460;BME280;41326;45.302;-122.946;2024-03-07T04:33:55;101353.79;;;19.42;50.17
55460;BME280;41326;45.302;-122.946;2024-03-07T04:36:26;101353.25;;;19.39;50.35
55460;BME280;41326;45.302;-122.946;2024-03-07T04:38:56;101356.85;;;19.35;50.50
55460;BME280;41326;45.302;-122.946;2024-03-07T04:41:26;101354.72;;;19.30;50.70
55460;BME280;41326;45.302;-122.946;2024-03-07T04:43:56;101351.94;;;19.27;50.80
55460;BME280;41326;45.302;-122.946;2024-03-07T04:46:26;101350.69;;;19.25;50.78
55460;BME280;41326;45.302;-122.946;2024-03-07T04:48:56;101352.32;;;19.22;50.95
55460;BME280;41326;45.302;-122.946;2024-03-07T04:51:26;101353.63;;;19.23;51.02
55460;BME280;41326;45.302;-122.946;2024-03-07T04:53:57;101355.64;;;19.23;51.10
55460;BME280;41326;45.302;-122.946;2024-03-07T04:56:28;101358.85;;;19.22;51.09
55460;BME280;41326;45.302;-122.946;2024-03-07T04:58:58;101360.03;;;19.16;51.22
55460;BME280;41326;45.302;-122.946;2024-03-07T05:01:28;101363.66;;;19.13;51.17
55460;BME280;41326;45.302;-122.946;2024-03-07T05:03:59;101364.53;;;19.17;51.18
55460;BME280;41326;45.302;-122.946;2024-03-07T05:06:29;101366.35;;;19.18;51.13
55460;BME280;41326;45.302;-122.946;2024-03-07T05:08:59;101368.72;;;19.14;51.19
55460;BME280;41326;45.302;-122.946;2024-03-07T05:11:29;101372.26;;;19.09;51.40
55460;BME280;41326;45.302;-122.946;2024-03-07T05:14:01;101371.11;;;19.06;51.53
55460;BME280;41326;45.302;-122.946;2024-03-07T05:16:31;101374.75;;;19.02;51.59
55460;BME280;41326;45.302;-122.946;2024-03-07T05:19:00;101374.11;;;18.97;51.73
55460;BME280;41326;45.302;-122.946;2024-03-07T05:21:30;101375.88;;;18.93;51.92
55460;BME280;41326;45.302;-122.946;2024-03-07T05:24:01;101376.78;;;18.92;51.85
55460;BME280;41326;45.302;-122.946;2024-03-07T05:26:31;101374.29;;;18.90;51.80
55460;BME280;41326;45.302;-122.946;2024-03-07T05:29:02;101373.69;;;18.88;51.82
55460;BME280;41326;45.302;-122.946;2024-03-07T05:31:32;101373.63;;;18.85;51.99
55460;BME280;41326;45.302;-122.946;2024-03-07T05:34:02;101378.06;;;18.82;52.06
55460;BME280;41326;45.302;-122.946;2024-03-07T05:36:32;101379.65;;;18.77;52.22
55460;BME280;41326;45.302;-122.946;2024-03-07T05:39:02;101382.94;;;18.73;52.33
55460;BME280;41326;45.302;-122.946;2024-03-07T05:41:32;101391.75;;;18.70;52.38
55460;BME280;41326;45.302;-122.946;2024-03-07T05:44:03;101393.27;;;18.67;52.37
55460;BME280;41326;45.302;-122.946;2024-03-07T05:46:33;101394.98;;;18.65;52.30
55460;BME280;41326;45.302;-122.946;2024-03-07T05:49:03;101397.17;;;18.65;52.29
55460;BME280;41326;45.302;-122.946;2024-03-07T05:51:33;101400.64;;;18.64;52.36
55460;BME280;41326;45.302;-122.946;2024-03-07T05:54:04;101400.17;;;18.63;52.38
55460;BME280;41326;45.302;-122.946;2024-03-07T05:56:34;101399.41;;;18.63;52.40
55460;BME280;41326;45.302;-122.946;2024-03-07T05:59:05;101400.68;;;18.55;52.65
55460;BME280;41326;45.302;-122.946;2024-03-07T06:01:35;101402.36;;;18.52;52.69
55460;BME280;41326;45.302;-122.946;2024-03-07T06:04:06;101398.91;;;18.50;52.66
55460;BME280;41326;45.302;-122.946;2024-03-07T06:06:35;101398.32;;;18.48;52.54
55460;BME280;41326;45.302;-122.946;2024-03-07T06:09:07;101397.47;;;18.46;52.55
55460;BME280;41326;45.302;-122.946;2024-03-07T06:11:35;101399.92;;;18.40;52.74
55460;BME280;41326;45.302;-122.946;2024-03-07T06:14:07;101401.68;;;18.37;52.85
55460;BME280;41326;45.302;-122.946;2024-03-07T06:16:37;101404.29;;;18.34;52.90
55460;BME280;41326;45.302;-122.946;2024-03-07T06:19:07;101403.86;;;18.28;53.06
55460;BME280;41326;45.302;-122.946;2024-03-07T06:21:37;101405.05;;;18.27;53.08
55460;BME280;41326;45.302;-122.946;2024-03-07T06:24:07;101402.24;;;18.24;53.04
55460;BME280;41326;45.302;-122.946;2024-03-07T06:26:38;101404.44;;;18.23;52.91
55460;BME280;41326;45.302;-122.946;2024-03-07T06:29:07;101406.73;;;18.16;52.99
55460;BME280;41326;45.302;-122.946;2024-03-07T06:31:37;101408.91;;;18.19;52.99
55460;BME280;41326;45.302;-122.946;2024-03-07T06:34:08;101404.69;;;18.18;53.00
55460;BME280;41326;45.302;-122.946;2024-03-07T06:36:38;101407.99;;;18.15;53.05
55460;BME280;41326;45.302;-122.946;2024-03-07T06:39:08;101408.98;;;18.15;53.09
55460;BME280;41326;45.302;-122.946;2024-03-07T06:41:39;101411.04;;;18.10;53.27
55460;BME280;41326;45.302;-122.946;2024-03-07T06:44:09;101411.84;;;18.10;53.21
55460;BME280;41326;45.302;-122.946;2024-03-07T06:46:39;101412.69;;;18.07;53.19
55460;BME280;41326;45.302;-122.946;2024-03-07T06:49:09;101413.32;;;18.06;53.17
55460;BME280;41326;45.302;-122.946;2024-03-07T06:51:40;101414.38;;;18.06;53.24
55460;BME280;41326;45.302;-122.946;2024-03-07T06:54:10;101414.23;;;18.11;53.10
55460;BME280;41326;45.302;-122.946;2024-03-07T06:56:40;101412.44;;;18.08;53.23
55460;BME280;41326;45.302;-122.946;2024-03-07T06:59:10;101417.42;;;18.05;53.33
55460;BME280;41326;45.302;-122.946;2024-03-07T07:01:40;101416.97;;;18.00;53.43
55460;BME280;41326;45.302;-122.946;2024-03-07T07:04:10;101419.78;;;17.99;53.39
55460;BME280;41326;45.302;-122.946;2024-03-07T07:06:40;101418.81;;;18.01;53.19
55460;BME280;41326;45.302;-122.946;2024-03-07T07:09:11;101421.29;;;17.97;53.21
55460;BME280;41326;45.302;-122.946;2024-03-07T07:11:41;101421.84;;;17.91;53.38
55460;BME280;41326;45.302;-122.946;2024-03-07T07:14:12;101423.62;;;17.87;53.55
55460;BME280;41326;45.302;-122.946;2024-03-07T07:16:42;101423.19;;;17.82;53.67
55460;BME280;41326;45.302;-122.946;2024-03-07T07:19:12;101422.19;;;17.80;53.78
55460;BME280;41326;45.302;-122.946;2024-03-07T07:21:42;101417.40;;;17.79;53.82
55460;BME280;41326;45.302;-122.946;2024-03-07T07:24:12;101415.77;;;17.78;53.74
55460;BME280;41326;45.302;-122.946;2024-03-07T07:26:42;101416.04;;;17.77;53.75
55460;BME280;41326;45.302;-122.946;2024-03-07T07:29:12;101418.14;;;17.71;53.89
55460;BME280;41326;45.302;-122.946;2024-03-07T07:31:42;101418.85;;;17.71;53.97
55460;BME280;41326;45.302;-122.946;2024-03-07T07:34:13;101413.51;;;17.69;54.08
55460;BME280;41326;45.302;-122.946;2024-03-07T07:36:42;101413.74;;;17.66;54.25
55460;BME280;41326;45.302;-122.946;2024-03-07T07:39:13;101412.53;;;17.63;54.35
55460;BME280;41326;45.302;-122.946;2024-03-07T07:41:42;101411.33;;;17.60;54.50
55460;BME280;41326;45.302;-122.946;2024-03-07T07:44:13;101410.74;;;17.61;54.37
55460;BME280;41326;45.302;-122.946;2024-03-07T07:46:42;101415.10;;;17.60;54.24
55460;BME280;41326;45.302;-122.946;2024-03-07T07:49:13;101413.52;;;17.58;54.25
55460;BME280;41326;45.302;-122.946;2024-03-07T07:51:43;101417.85;;;17.58;54.27
55460;BME280;41326;45.302;-122.946;2024-03-07T07:54:13;101419.38;;;17.58;54.28
55460;BME280;41326;45.302;-122.946;2024-03-07T07:56:43;101420.43;;;17.58;54.33
55460;BME280;41326;45.302;-122.946;2024-03-07T07:59:13;101417.51;;;17.57;54.33
55460;BME280;41326;45.302;-122.946;2024-03-07T08:01:43;101419.10;;;17.58;54.33
55460;BME280;41326;45.302;-122.946;2024-03-07T08:04:13;101421.61;;;17.58;54.25
55460;BME280;41326;45.302;-122.946;2024-03-07T08:06:43;101424.59;;;17.56;54.18
55460;BME280;41326;45.302;-122.946;2024-03-07T08:09:13;101430.17;;;17.52;54.22
55460;BME280;41326;45.302;-122.946;2024-03-07T08:11:43;101430.85;;;17.46;54.43
55460;BME280;41326;45.302;-122.946;2024-03-07T08:14:14;101430.40;;;17.44;54.53
55460;BME280;41326;45.302;-122.946;2024-03-07T08:16:43;101432.39;;;17.38;54.78
55460;BME280;41326;45.302;-122.946;2024-03-07T08:19:14;101433.26;;;17.35;54.87
55460;BME280;41326;45.302;-122.946;2024-03-07T08:21:44;101435.13;;;17.35;54.88
55460;BME280;41326;45.302;-122.946;2024-03-07T08:24:14;101430.40;;;17.36;54.79
55460;BME280;41326;45.302;-122.946;2024-03-07T08:26:44;101431.30;;;17.35;54.67
55460;BME280;41326;45.302;-122.946;2024-03-07T08:29:14;101435.92;;;17.32;54.67
55460;BME280;41326;45.302;-122.946;2024-03-07T08:31:44;101438.94;;;17.34;54.63
55460;BME280;41326;45.302;-122.946;2024-03-07T08:34:14;101443.35;;;17.28;54.82
55460;BME280;41326;45.302;-122.946;2024-03-07T08:36:44;101446.55;;;17.29;54.83
55460;BME280;41326;45.302;-122.946;2024-03-07T08:39:14;101447.82;;;17.27;54.89
55460;BME280;41326;45.302;-122.946;2024-03-07T08:41:44;101454.68;;;17.24;55.04
55460;BME280;41326;45.302;-122.946;2024-03-07T08:44:14;101453.69;;;17.26;54.85
55460;BME280;41326;45.302;-122.946;2024-03-07T08:46:44;101457.43;;;17.24;54.82
55460;BME280;41326;45.302;-122.946;2024-03-07T08:49:14;101461.93;;;17.24;54.73
55460;BME280;41326;45.302;-122.946;2024-03-07T08:51:44;101462.93;;;17.23;54.75
55460;BME280;41326;45.302;-122.946;2024-03-07T08:54:15;101463.92;;;17.27;54.69
55460;BME280;41326;45.302;-122.946;2024-03-07T08:56:45;101463.33;;;17.28;54.64
55460;BME280;41326;45.302;-122.946;2024-03-07T08:59:15;101462.17;;;17.24;54.78
55460;BME280;41326;45.302;-122.946;2024-03-07T09:01:45;101460.79;;;17.18;54.99
55460;BME280;41326;45.302;-122.946;2024-03-07T09:04:15;101465.47;;;17.18;54.88
55460;BME280;41326;45.302;-122.946;2024-03-07T09:06:45;101467.92;;;17.19;54.71
55460;BME280;41326;45.302;-122.946;2024-03-07T09:09:15;101469.31;;;17.16;54.67
55460;BME280;41326;45.302;-122.946;2024-03-07T09:11:45;101474.20;;;17.13;54.83
55460;BME280;41326;45.302;-122.946;2024-03-07T09:14:16;101473.76;;;17.10;54.90
55460;BME280;41326;45.302;-122.946;2024-03-07T09:16:45;101475.64;;;17.07;54.99
55460;BME280;41326;45.302;-122.946;2024-03-07T09:19:15;101474.91;;;17.06;55.04
55460;BME280;41326;45.302;-122.946;2024-03-07T09:21:45;101474.56;;;17.04;55.09
55460;BME280;41326;45.302;-122.946;2024-03-07T09:24:16;101477.16;;;17.06;54.88
55460;BME280;41326;45.302;-122.946;2024-03-07T09:26:46;101479.41;;;17.04;54.76
55460;BME280;41326;45.302;-122.946;2024-03-07T09:29:16;101482.33;;;16.98;54.83
55460;BME280;41326;45.302;-122.946;2024-03-07T09:31:46;101486.38;;;16.95;54.97
55460;BME280;41326;45.302;-122.946;2024-03-07T09:34:16;101491.01;;;16.94;55.06
55460;BME280;41326;45.302;-122.946;2024-03-07T09:36:46;101490.55;;;16.91;55.11
55460;BME280;41326;45.302;-122.946;2024-03-07T09:39:16;101493.89;;;16.89;55.19
55460;BME280;41326;45.302;-122.946;2024-03-07T09:41:46;101496.41;;;16.89;55.16
55460;BME280;41326;45.302;-122.946;2024-03-07T09:44:19;101493.23;;;16.89;55.01
55460;BME280;41326;45.302;-122.946;2024-03-07T09:46:47;101496.29;;;16.88;54.85
55460;BME280;41326;45.302;-122.946;2024-03-07T09:49:17;101496.94;;;16.88;54.75
55460;BME280;41326;45.302;-122.946;2024-03-07T09:51:48;101499.77;;;16.88;54.74
55460;BME280;41326;45.302;-122.946;2024-03-07T09:54:17;101504.85;;;16.91;54.65
55460;BME280;41326;45.302;-122.946;2024-03-07T09:56:47;101508.18;;;16.91;54.64
55460;BME280;41326;45.302;-122.946;2024-03-07T09:59:18;101511.14;;;16.87;54.72
55460;BME280;41326;45.302;-122.946;2024-03-07T10:01:48;101511.85;;;16.81;54.92
55460;BME280;41326;45.302;-122.946;2024-03-07T10:04:20;101513.50;;;16.80;54.84
55460;BME280;41326;45.302;-122.946;2024-03-07T10:06:47;101512.42;;;16.74;54.83
55460;BME280;41326;45.302;-122.946;2024-03-07T10:09:18;101510.62;;;16.70;54.86
55460;BME280;41326;45.302;-122.946;2024-03-07T10:11:56;101505.93;;;16.65;54.97
55460;BME280;41326;45.302;-122.946;2024-03-07T10:14:18;101504.03;;;16.64;55.05
55460;BME280;41326;45.302;-122.946;2024-03-07T10:16:48;101504.73;;;16.61;55.12
55460;BME280;41326;45.302;-122.946;2024-03-07T10:19:18;101508.51;;;16.58;55.23
55460;BME280;41326;45.302;-122.946;2024-03-07T10:21:48;101510.31;;;16.55;55.28
55460;BME280;41326;45.302;-122.946;2024-03-07T10:24:20;101511.77;;;16.58;55.07
55460;BME280;41326;45.302;-122.946;2024-03-07T10:26:48;101510.54;;;16.56;54.98
55460;BME280;41326;45.302;-122.946;2024-03-07T10:29:18;101510.40;;;16.50;55.02
55460;BME280;41326;45.302;-122.946;2024-03-07T10:31:48;101514.59;;;16.50;55.06
55460;BME280;41326;45.302;-122.946;2024-03-07T10:34:18;101514.15;;;16.47;55.12
55460;BME280;41326;45.302;-122.946;2024-03-07T10:36:48;101517.14;;;16.48;55.13
55460;BME280;41326;45.302;-122.946;2024-03-07T10:39:18;101514.05;;;16.46;55.19
55460;BME280;41326;45.302;-122.946;2024-03-07T10:41:49;101515.05;;;16.46;55.16
55460;BME280;41326;45.302;-122.946;2024-03-07T10:44:23;101515.69;;;16.42;55.09
55460;BME280;41326;45.302;-122.946;2024-03-07T10:46:53;101516.19;;;16.37;55.13
55460;BME280;41326;45.302;-122.946;2024-03-07T10:49:20;101516.40;;;16.36;55.07
55460;BME280;41326;45.302;-122.946;2024-03-07T10:51:57;101515.08;;;16.38;54.99
55460;BME280;41326;45.302;-122.946;2024-03-07T10:54:24;101519.25;;;16.39;54.93
55460;BME280;41326;45.302;-122.946;2024-03-07T10:56:58;101520.35;;;16.36;54.99
55460;BME280;41326;45.302;-122.946;2024-03-07T10:59:20;101516.28;;;16.30;55.17
55460;BME280;41326;45.302;-122.946;2024-03-07T11:01:57;101516.26;;;16.29;55.13
55460;BME280;41326;45.302;-122.946;2024-03-07T11:04:19;101511.24;;;16.26;55.16
55460;BME280;41326;45.302;-122.946;2024-03-07T11:06:49;101511.22;;;16.24;55.00
55460;BME280;41326;45.302;-122.946;2024-03-07T11:09:20;101511.04;;;16.24;54.90
55460;BME280;41326;45.302;-122.946;2024-03-07T11:11:50;101512.98;;;16.20;55.01
55460;BME280;41326;45.302;-122.946;2024-03-07T11:14:21;101517.34;;;16.21;54.96
55460;BME280;41326;45.302;-122.946;2024-03-07T11:16:50;101515.59;;;16.16;55.05
55460;BME280;41326;45.302;-122.946;2024-03-07T11:19:25;101514.51;;;16.16;55.07
55460;BME280;41326;45.302;-122.946;2024-03-07T11:21:50;101512.01;;;16.13;55.11
55460;BME280;41326;45.302;-122.946;2024-03-07T11:24:25;101514.11;;;16.13;54.98
55460;BME280;41326;45.302;-122.946;2024-03-07T11:26:52;101515.96;;;16.12;54.87
55460;BME280;41326;45.302;-122.946;2024-03-07T11:31:54;101530.80;;;16.05;54.99
55460;BME280;41326;45.302;-122.946;2024-03-07T11:34:21;101533.29;;;16.02;55.14
55460;BME280;41326;45.302;-122.946;2024-03-07T11:36:51;101532.00;;;16.00;55.25
55460;BME280;41326;45.302;-122.946;2024-03-07T11:41:51;101539.43;;;15.93;55.40
55460;BME280;41326;45.302;-122.946;2024-03-07T11:44:21;101540.45;;;15.94;55.29
55460;BME280;41326;45.302;-122.946;2024-03-07T11:46:51;101542.45;;;15.92;55.21
55460;BME280;41326;45.302;-122.946;2024-03-07T11:49:22;101543.89;;;15.91;55.17
55460;BME280;41326;45.302;-122.946;2024-03-07T11:51:51;101543.82;;;15.92;55.14
55460;BME280;41326;45.302;-122.946;2024-03-07T11:54:22;101542.80;;;15.94;55.06
55460;BME280;41326;45.302;-122.946;2024-03-07T11:56:51;101544.64;;;15.96;54.99
55460;BME280;41326;45.302;-122.946;2024-03-07T11:59:23;101548.37;;;15.91;55.10
55460;BME280;41326;45.302;-122.946;2024-03-07T12:01:53;101547.71;;;15.88;55.15
55460;BME280;41326;45.302;-122.946;2024-03-07T12:04:22;101549.66;;;15.86;55.08
55460;BME280;41326;45.302;-122.946;2024-03-07T12:06:52;101554.16;;;15.87;54.95
55460;BME280;41326;45.302;-122.946;2024-03-07T12:09:22;101557.80;;;15.84;54.98
55460;BME280;41326;45.302;-122.946;2024-03-07T12:11:52;101560.62;;;15.83;55.00
55460;BME280;41326;45.302;-122.946;2024-03-07T12:14:23;101560.68;;;15.78;55.10
55460;BME280;41326;45.302;-122.946;2024-03-07T12:16:52;101563.41;;;15.76;55.19
55460;BME280;41326;45.302;-122.946;2024-03-07T12:19:22;101565.86;;;15.75;55.18
55460;BME280;41326;45.302;-122.946;2024-03-07T12:21:57;101564.81;;;15.73;55.25
55460;BME280;41326;45.302;-122.946;2024-03-07T12:24:23;101568.26;;;15.70;55.21
55460;BME280;41326;45.302;-122.946;2024-03-07T12:26:53;101564.42;;;15.70;55.10
55460;BME280;41326;45.302;-122.946;2024-03-07T12:29:26;101565.87;;;15.68;55.04
55460;BME280;41326;45.302;-122.946;2024-03-07T12:31:53;101569.42;;;15.68;55.07
55460;BME280;41326;45.302;-122.946;2024-03-07T12:34:23;101571.41;;;15.66;55.12
55460;BME280;41326;45.302;-122.946;2024-03-07T12:36:53;101574.28;;;15.63;55.20
55460;BME280;41326;45.302;-122.946;2024-03-07T12:39:23;101574.29;;;15.63;55.21